sensor_id;sensor_type;location;lat;lon;timestamp;pressure;altitude;pressure_sealevel;temperature;humidity
35704;BME280;21820;51.112;13.762;2022-10-30T00:00:40;99862.25;;;21.81;65.70
35704;BME280;21820;51.112;13.762;2022-10-30T00:03:05;99861.97;;;21.84;65.51
35704;BME280;21820;51.112;13.762;2022-10-30T00:05:33;99863.88;;;21.82;66.21
35704;BME280;21820;51.112;13.762;2022-10-30T00:07:58;99870.09;;;21.81;66.08
35704;BME280;21820;51.112;13.762;2022-10-30T00:10:24;99856.03;;;21.82;66.21
35704;BME280;21820;51.112;13.762;2022-10-30T00:12:49;99863.03;;;21.82;65.62
35704;BME280;21820;51.112;13.762;2022-10-30T00:15:14;99839.16;;;21.75;66.09
35704;BME280;21820;51.112;13.762;2022-10-30T00:17:39;99851.78;;;21.81;66.32
35704;BME280;21820;51.112;13.762;2022-10-30T00:20:05;99856.16;;;21.81;66.25
35704;BME280;21820;51.112;13.762;2022-10-30T00:22:30;99852.56;;;21.82;65.67
35704;BME280;21820;51.112;13.762;2022-10-30T00:24:55;99851.78;;;21.81;65.70
35704;BME280;21820;51.112;13.762;2022-10-30T00:27:21;99848.44;;;21.79;65.74
35704;BME280;21820;51.112;13.762;2022-10-30T00:29:46;99848.19;;;21.82;66.04
35704;BME280;21820;51.112;13.762;2022-10-30T00:32:11;99841.97;;;21.83;65.68
35704;BME280;21820;51.112;13.762;2022-10-30T00:34:36;99851.50;;;21.84;65.82
35704;BME280;21820;51.112;13.762;2022-10-30T00:37:01;99846.53;;;21.81;66.11
35704;BME280;21820;51.112;13.762;2022-10-30T00:39:27;99848.19;;;21.82;66.15
35704;BME280;21820;51.112;13.762;2022-10-30T00:41:52;99836.31;;;21.78;66.09
35704;BME280;21820;51.112;13.762;2022-10-30T00:46:55;99829.84;;;21.82;66.02
35704;BME280;21820;51.112;13.762;2022-10-30T00:49:20;99837.72;;;21.82;66.06
35704;BME280;21820;51.112;13.762;2022-10-30T00:51:47;99822.78;;;21.73;66.10
35704;BME280;21820;51.112;13.762;2022-10-30T00:54:14;99825.47;;;21.83;66.06
35704;BME280;21820;51.112;13.762;2022-10-30T00:56:40;99806.84;;;21.76;65.77
35704;BME280;21820;51.112;13.762;2022-10-30T00:59:10;99820.09;;;21.84;65.80
35704;BME280;21820;51.112;13.762;2022-10-30T01:01:38;99822.69;;;21.84;65.44
35704;BME280;21820;51.112;13.762;2022-10-30T01:04:04;99801.63;;;21.76;66.18
35704;BME280;21820;51.112;13.762;2022-10-30T01:06:31;99799.00;;;21.76;65.43
35704;BME280;21820;51.112;13.762;2022-10-30T01:08:57;99805.31;;;21.83;65.52
35704;BME280;21820;51.112;13.762;2022-10-30T01:11:23;99806.31;;;21.82;66.19
35704;BME280;21820;51.112;13.762;2022-10-30T01:13:49;99804.66;;;21.81;66.28
35704;BME280;21820;51.112;13.762;2022-10-30T01:19:17;99806.88;;;21.86;65.52
35704;BME280;21820;51.112;13.762;2022-10-30T01:39:13;99792.00;;;21.86;65.47
35704;BME280;21820;51.112;13.762;2022-10-30T01:41:40;99797.63;;;21.82;65.69
35704;BME280;21820;51.112;13.762;2022-10-30T01:44:06;99790.59;;;21.82;66.41
35704;BME280;21820;51.112;13.762;2022-10-30T01:49:22;99765.19;;;21.73;65.67
35704;BME280;21820;51.112;13.762;2022-10-30T01:52:05;99774.91;;;21.82;65.78
35704;BME280;21820;51.112;13.762;2022-10-30T01:57:17;99762.59;;;21.73;65.99
35704;BME280;21820;51.112;13.762;2022-10-30T02:02:11;99785.22;;;21.84;66.18
35704;BME280;21820;51.112;13.762;2022-10-30T02:04:37;99789.06;;;21.80;66.13
35704;BME280;21820;51.112;13.762;2022-10-30T02:07:02;99780.41;;;21.79;66.05
35704;BME280;21820;51.112;13.762;2022-10-30T02:09:28;99782.06;;;21.80;66.06
35704;BME280;21820;51.112;13.762;2022-10-30T02:11:54;99779.28;;;21.82;66.15
35704;BME280;21820;51.112;13.762;2022-10-30T02:14:20;99769.81;;;21.81;65.82
35704;BME280;21820;51.112;13.762;2022-10-30T02:16:48;99772.28;;;21.82;65.60
35704;BME280;21820;51.112;13.762;2022-10-30T02:19:14;99780.97;;;21.83;66.09
35704;BME280;21820;51.112;13.762;2022-10-30T02:21:40;99773.25;;;21.81;66.33
35704;BME280;21820;51.112;13.762;2022-10-30T02:24:05;99768.03;;;21.81;65.79
35704;BME280;21820;51.112;13.762;2022-10-30T02:26:31;99759.16;;;21.73;66.24
35704;BME280;21820;51.112;13.762;2022-10-30T02:28:56;99769.66;;;21.82;65.55
35704;BME280;21820;51.112;13.762;2022-10-30T02:31:21;99773.91;;;21.83;65.56
35704;BME280;21820;51.112;13.762;2022-10-30T02:33:47;99769.66;;;21.82;65.79
35704;BME280;21820;51.112;13.762;2022-10-30T02:36:12;99773.25;;;21.81;65.95
35704;BME280;21820;51.112;13.762;2022-10-30T02:38:40;99769.94;;;21.79;66.35
35704;BME280;21820;51.112;13.762;2022-10-30T02:41:06;99768.03;;;21.81;66.33
35704;BME280;21820;51.112;13.762;2022-10-30T02:43:31;99764.16;;;21.85;66.12
35704;BME280;21820;51.112;13.762;2022-10-30T02:45:57;99765.41;;;21.81;66.23
35704;BME280;21820;51.112;13.762;2022-10-30T02:48:22;99759.19;;;21.82;65.90
35704;BME280;21820;51.112;13.762;2022-10-30T02:50:47;99764.44;;;21.82;65.95
35704;BME280;21820;51.112;13.762;2022-10-30T02:53:12;99752.69;;;21.77;66.13
35704;BME280;21820;51.112;13.762;2022-10-30T02:55:37;99754.94;;;21.81;65.85
35704;BME280;21820;51.112;13.762;2022-10-30T02:58:03;99765.41;;;21.81;66.47
35704;BME280;21820;51.112;13.762;2022-10-30T03:00:28;99760.03;;;21.83;66.13
35704;BME280;21820;51.112;13.762;2022-10-30T03:02:54;99759.19;;;21.82;66.11
35704;BME280;21820;51.112;13.762;2022-10-30T03:05:19;99760.16;;;21.81;65.85
35704;BME280;21820;51.112;13.762;2022-10-30T03:07:44;99749.28;;;21.76;65.90
35704;BME280;21820;51.112;13.762;2022-10-30T03:10:12;99767.75;;;21.84;65.75
35704;BME280;21820;51.112;13.762;2022-10-30T03:12:37;99764.44;;;21.82;65.64
35704;BME280;21820;51.112;13.762;2022-10-30T03:15:02;99762.78;;;21.81;65.89
35704;BME280;21820;51.112;13.762;2022-10-30T03:17:28;99754.25;;;21.79;65.85
35704;BME280;21820;51.112;13.762;2022-10-30T03:19:53;99751.44;;;21.71;65.97
35704;BME280;21820;51.112;13.762;2022-10-30T03:22:19;99763.03;;;21.78;65.97
35704;BME280;21820;51.112;13.762;2022-10-30T03:24:44;99766.34;;;21.80;65.67
35704;BME280;21820;51.112;13.762;2022-10-30T03:27:09;99747.84;;;21.72;66.24
35704;BME280;21820;51.112;13.762;2022-10-30T03:29:34;99761.81;;;21.82;65.68
35704;BME280;21820;51.112;13.762;2022-10-30T03:31:59;99764.44;;;21.82;65.88
35704;BME280;21820;51.112;13.762;2022-10-30T03:34:26;99768.44;;;21.86;65.36
35704;BME280;21820;51.112;13.762;2022-10-30T03:36:51;99776.53;;;21.83;65.51
35704;BME280;21820;51.112;13.762;2022-10-30T03:39:16;99771.59;;;21.80;65.58
35704;BME280;21820;51.112;13.762;2022-10-30T03:41:41;99782.75;;;21.82;65.85
35704;BME280;21820;51.112;13.762;2022-10-30T03:44:07;99779.84;;;21.85;65.40
35704;BME280;21820;51.112;13.762;2022-10-30T03:46:32;99775.59;;;21.84;65.68
35704;BME280;21820;51.112;13.762;2022-10-30T03:48:58;99778.50;;;21.81;65.89
35704;BME280;21820;51.112;13.762;2022-10-30T03:51:23;99780.13;;;21.82;65.69
35704;BME280;21820;51.112;13.762;2022-10-30T03:53:48;99770.50;;;21.83;65.70
35704;BME280;21820;51.112;13.762;2022-10-30T03:56:13;99754.53;;;21.76;66.03
35704;BME280;21820;51.112;13.762;2022-10-30T03:58:39;99766.22;;;21.82;66.31
35704;BME280;21820;51.112;13.762;2022-10-30T04:01:04;99766.06;;;21.83;65.91
35704;BME280;21820;51.112;13.762;2022-10-30T04:03:30;99772.97;;;21.84;65.68
35704;BME280;21820;51.112;13.762;2022-10-30T04:05:55;99769.53;;;21.84;66.14
35704;BME280;21820;51.112;13.762;2022-10-30T04:08:21;99764.44;;;21.82;66.30
35704;BME280;21820;51.112;13.762;2022-10-30T04:10:46;99756.56;;;21.82;66.12
35704;BME280;21820;51.112;13.762;2022-10-30T04:13:12;99754.78;;;21.83;66.41
35704;BME280;21820;51.112;13.762;2022-10-30T04:15:38;99749.81;;;21.80;66.40
35704;BME280;21820;51.112;13.762;2022-10-30T04:18:04;99750.38;;;21.83;66.08
35704;BME280;21820;51.112;13.762;2022-10-30T04:20:29;99740.47;;;21.77;66.34
35704;BME280;21820;51.112;13.762;2022-10-30T04:22:55;99738.25;;;21.82;65.55
35704;BME280;21820;51.112;13.762;2022-10-30T04:25:21;99733.03;;;21.82;65.81
35704;BME280;21820;51.112;13.762;2022-10-30T04:27:46;99716.75;;;21.79;65.83
35704;BME280;21820;51.112;13.762;2022-10-30T04:30:13;99727.50;;;21.85;65.92
35704;BME280;21820;51.112;13.762;2022-10-30T04:32:48;99720.91;;;21.81;66.22
35704;BME280;21820;51.112;13.762;2022-10-30T04:35:13;99717.88;;;21.76;65.82
35704;BME280;21820;51.112;13.762;2022-10-30T04:37:39;99733.84;;;21.83;66.30
35704;BME280;21820;51.112;13.762;2022-10-30T04:40:04;99741.16;;;21.79;65.48
35704;BME280;21820;51.112;13.762;2022-10-30T04:42:30;99739.91;;;21.83;65.94
35704;BME280;21820;51.112;13.762;2022-10-30T04:44:55;99736.63;;;21.81;66.05
35704;BME280;21820;51.112;13.762;2022-10-30T04:47:20;99736.47;;;21.83;66.09
35704;BME280;21820;51.112;13.762;2022-10-30T04:49:46;99733.16;;;21.81;65.80
35704;BME280;21820;51.112;13.762;2022-10-30T04:52:11;99734.66;;;21.83;66.10
35704;BME280;21820;51.112;13.762;2022-10-30T04:54:36;99726.81;;;21.83;65.51
35704;BME280;21820;51.112;13.762;2022-10-30T04:57:01;99734.09;;;21.80;65.97
35704;BME280;21820;51.112;13.762;2022-10-30T04:59:27;99728.75;;;21.81;65.93
35704;BME280;21820;51.112;13.762;2022-10-30T05:01:52;99720.06;;;21.81;66.28
35704;BME280;21820;51.112;13.762;2022-10-30T05:04:17;99727.22;;;21.79;66.30
35704;BME280;21820;51.112;13.762;2022-10-30T05:06:42;99697.16;;;21.73;66.05
35704;BME280;21820;51.112;13.762;2022-10-30T05:09:08;99717.31;;;21.82;65.86
35704;BME280;21820;51.112;13.762;2022-10-30T05:11:33;99698.00;;;21.74;65.32
35704;BME280;21820;51.112;13.762;2022-10-30T05:13:58;99718.81;;;21.85;65.69
35704;BME280;21820;51.112;13.762;2022-10-30T05:16:23;99703.22;;;21.74;65.76
35704;BME280;21820;51.112;13.762;2022-10-30T05:18:49;99723.53;;;21.81;65.94
35704;BME280;21820;51.112;13.762;2022-10-30T05:21:14;99704.91;;;21.75;66.13
35704;BME280;21820;51.112;13.762;2022-10-30T05:23:39;99721.56;;;21.83;66.01
35704;BME280;21820;51.112;13.762;2022-10-30T05:26:04;99722.84;;;21.79;65.62
35704;BME280;21820;51.112;13.762;2022-10-30T05:28:30;99726.16;;;21.81;65.90
35704;BME280;21820;51.112;13.762;2022-10-30T05:30:55;99715.94;;;21.78;66.00
35704;BME280;21820;51.112;13.762;2022-10-30T05:33:20;99732.03;;;21.83;65.88
35704;BME280;21820;51.112;13.762;2022-10-30T05:35:45;99725.16;;;21.82;65.78
35704;BME280;21820;51.112;13.762;2022-10-30T05:38:11;99725.88;;;21.84;65.62
35704;BME280;21820;51.112;13.762;2022-10-30T05:40:36;99728.91;;;21.89;65.90
35704;BME280;21820;51.112;13.762;2022-10-30T05:43:02;99719.66;;;21.85;65.67
35704;BME280;21820;51.112;13.762;2022-10-30T05:45:27;99715.53;;;21.83;65.78
35704;BME280;21820;51.112;13.762;2022-10-30T05:48:03;99732.19;;;21.82;65.66
35704;BME280;21820;51.112;13.762;2022-10-30T05:50:28;99724.19;;;21.83;65.90
35704;BME280;21820;51.112;13.762;2022-10-30T05:52:57;99728.47;;;21.84;65.50
35704;BME280;21820;51.112;13.762;2022-10-30T05:55:23;99726.00;;;21.83;65.71
35704;BME280;21820;51.112;13.762;2022-10-30T05:57:48;99717.16;;;21.74;65.62
35704;BME280;21820;51.112;13.762;2022-10-30T06:00:14;99735.50;;;21.84;65.61
35704;BME280;21820;51.112;13.762;2022-10-30T06:02:39;99730.13;;;21.85;65.40
35704;BME280;21820;51.112;13.762;2022-10-30T06:05:04;99722.97;;;21.87;65.60
35704;BME280;21820;51.112;13.762;2022-10-30T06:07:30;99726.81;;;21.83;65.68
35704;BME280;21820;51.112;13.762;2022-10-30T06:09:55;99708.22;;;21.77;65.54
35704;BME280;21820;51.112;13.762;2022-10-30T06:12:20;99716.47;;;21.82;65.54
35704;BME280;21820;51.112;13.762;2022-10-30T06:14:45;99721.44;;;21.85;66.15
35704;BME280;21820;51.112;13.762;2022-10-30T06:17:11;99726.00;;;21.83;66.01
35704;BME280;21820;51.112;13.762;2022-10-30T06:19:36;99715.41;;;21.84;66.26
35704;BME280;21820;51.112;13.762;2022-10-30T06:22:01;99727.78;;;21.82;65.68
35704;BME280;21820;51.112;13.762;2022-10-30T06:24:26;99729.44;;;21.83;65.71
35704;BME280;21820;51.112;13.762;2022-10-30T06:26:51;99729.44;;;21.83;66.18
35704;BME280;21820;51.112;13.762;2022-10-30T06:29:17;99726.66;;;21.85;65.34
35704;BME280;21820;51.112;13.762;2022-10-30T06:31:42;99732.03;;;21.83;66.00
35704;BME280;21820;51.112;13.762;2022-10-30T06:34:07;99750.13;;;21.86;66.14
35704;BME280;21820;51.112;13.762;2022-10-30T06:36:32;99745.41;;;21.80;65.70
35704;BME280;21820;51.112;13.762;2022-10-30T06:38:57;99746.25;;;21.81;65.71
35704;BME280;21820;51.112;13.762;2022-10-30T06:41:23;99744.56;;;21.80;66.45
35704;BME280;21820;51.112;13.762;2022-10-30T06:43:48;99751.47;;;21.81;65.65
35704;BME280;21820;51.112;13.762;2022-10-30T06:46:13;99756.44;;;21.84;65.97
35704;BME280;21820;51.112;13.762;2022-10-30T06:48:39;99751.16;;;21.74;65.78
35704;BME280;21820;51.112;13.762;2022-10-30T06:51:04;99762.78;;;21.81;65.37
35704;BME280;21820;51.112;13.762;2022-10-30T06:53:29;99764.28;;;21.84;66.08
35704;BME280;21820;51.112;13.762;2022-10-30T06:58:20;99760.84;;;21.83;65.28
35704;BME280;21820;51.112;13.762;2022-10-30T07:00:46;99771.31;;;21.83;65.74
35704;BME280;21820;51.112;13.762;2022-10-30T07:03:11;99746.88;;;21.73;65.56
35704;BME280;21820;51.112;13.762;2022-10-30T07:05:36;99755.88;;;21.80;66.43
35704;BME280;21820;51.112;13.762;2022-10-30T07:08:02;99762.78;;;21.81;65.77
35704;BME280;21820;51.112;13.762;2022-10-30T07:10:27;99741.94;;;21.70;66.00
35704;BME280;21820;51.112;13.762;2022-10-30T07:12:53;99759.47;;;21.79;66.36
35704;BME280;21820;51.112;13.762;2022-10-30T07:15:18;99763.03;;;21.78;65.76
35704;BME280;21820;51.112;13.762;2022-10-30T07:17:50;99751.44;;;21.71;66.13
35704;BME280;21820;51.112;13.762;2022-10-30T07:20:15;99761.13;;;21.80;65.58
35704;BME280;21820;51.112;13.762;2022-10-30T07:22:40;99761.94;;;21.81;65.56
35704;BME280;21820;51.112;13.762;2022-10-30T07:25:05;99767.75;;;21.84;65.82
35704;BME280;21820;51.112;13.762;2022-10-30T07:27:31;99751.75;;;21.78;66.46
35704;BME280;21820;51.112;13.762;2022-10-30T07:29:56;99749.28;;;21.76;65.90
35704;BME280;21820;51.112;13.762;2022-10-30T07:32:21;99768.97;;;21.80;66.21
35704;BME280;21820;51.112;13.762;2022-10-30T07:34:47;99768.69;;;21.83;66.10
35704;BME280;21820;51.112;13.762;2022-10-30T07:37:12;99773.25;;;21.81;66.16
35704;BME280;21820;51.112;13.762;2022-10-30T07:39:37;99784.66;;;21.80;66.12
35704;BME280;21820;51.112;13.762;2022-10-30T07:42:02;99785.50;;;21.81;66.30
35704;BME280;21820;51.112;13.762;2022-10-30T07:44:28;99772.84;;;21.86;66.08
35704;BME280;21820;51.112;13.762;2022-10-30T07:46:53;99778.22;;;21.84;65.93
35704;BME280;21820;51.112;13.762;2022-10-30T07:49:18;99784.53;;;21.82;66.21
35704;BME280;21820;51.112;13.762;2022-10-30T07:51:43;99773.25;;;21.81;65.55
35704;BME280;21820;51.112;13.762;2022-10-30T07:54:09;99772.13;;;21.84;65.68
35704;BME280;21820;51.112;13.762;2022-10-30T07:56:34;99775.72;;;21.83;65.80
35704;BME280;21820;51.112;13.762;2022-10-30T07:58:59;99772.28;;;21.82;65.49
35704;BME280;21820;51.112;13.762;2022-10-30T08:01:24;99779.16;;;21.83;65.61
35704;BME280;21820;51.112;13.762;2022-10-30T08:03:49;99777.66;;;21.81;65.70
35704;BME280;21820;51.112;13.762;2022-10-30T08:06:15;99766.34;;;21.80;66.14
35704;BME280;21820;51.112;13.762;2022-10-30T08:08:40;99772.41;;;21.81;65.83
35704;BME280;21820;51.112;13.762;2022-10-30T08:11:05;99766.34;;;21.80;65.67
35704;BME280;21820;51.112;13.762;2022-10-30T08:13:30;99744.53;;;21.70;66.37
35704;BME280;21820;51.112;13.762;2022-10-30T08:15:56;99768.97;;;21.80;66.47
35704;BME280;21820;51.112;13.762;2022-10-30T08:18:21;99764.44;;;21.82;65.81
35704;BME280;21820;51.112;13.762;2022-10-30T08:20:47;99770.63;;;21.81;65.70
35704;BME280;21820;51.112;13.762;2022-10-30T08:23:14;99775.19;;;21.79;65.93
35704;BME280;21820;51.112;13.762;2022-10-30T08:25:41;99782.06;;;21.80;65.73
35704;BME280;21820;51.112;13.762;2022-10-30T08:28:07;99772.28;;;21.82;66.24
35704;BME280;21820;51.112;13.762;2022-10-30T08:30:33;99768.13;;;21.80;66.27
35704;BME280;21820;51.112;13.762;2022-10-30T08:32:59;99768.25;;;21.78;66.54
35704;BME280;21820;51.112;13.762;2022-10-30T08:35:25;99751.69;;;21.68;65.71
35704;BME280;21820;51.112;13.762;2022-10-30T08:37:53;99768.97;;;21.80;65.87
35704;BME280;21820;51.112;13.762;2022-10-30T08:40:18;99766.50;;;21.79;65.91
35704;BME280;21820;51.112;13.762;2022-10-30T08:42:49;99761.13;;;21.80;65.66
35704;BME280;21820;51.112;13.762;2022-10-30T08:45:14;99761.94;;;21.81;65.90
35704;BME280;21820;51.112;13.762;2022-10-30T08:47:39;99765.25;;;21.83;66.40
35704;BME280;21820;51.112;13.762;2022-10-30T08:50:04;99763.03;;;21.78;66.06
35704;BME280;21820;51.112;13.762;2022-10-30T08:52:29;99745.53;;;21.69;66.17
35704;BME280;21820;51.112;13.762;2022-10-30T08:54:55;99765.13;;;21.84;65.82
35704;BME280;21820;51.112;13.762;2022-10-30T08:57:20;99772.97;;;21.84;65.48
35704;BME280;21820;51.112;13.762;2022-10-30T08:59:45;99762.50;;;21.84;65.84
35704;BME280;21820;51.112;13.762;2022-10-30T09:02:10;99761.66;;;21.84;65.41
35704;BME280;21820;51.112;13.762;2022-10-30T09:04:36;99754.78;;;21.83;65.77
35704;BME280;21820;51.112;13.762;2022-10-30T09:07:01;99759.88;;;21.84;66.16
35704;BME280;21820;51.112;13.762;2022-10-30T09:09:26;99763.59;;;21.82;65.92
35704;BME280;21820;51.112;13.762;2022-10-30T09:11:51;99754.94;;;21.81;65.55
35704;BME280;21820;51.112;13.762;2022-10-30T09:14:17;99761.94;;;21.81;65.71
35704;BME280;21820;51.112;13.762;2022-10-30T09:16:42;99760.03;;;21.83;65.86
35704;BME280;21820;51.112;13.762;2022-10-30T09:19:08;99737.38;;;21.72;65.45
35704;BME280;21820;51.112;13.762;2022-10-30T09:21:33;99757.28;;;21.84;65.41
35704;BME280;21820;51.112;13.762;2022-10-30T09:23:59;99767.75;;;21.84;66.03
35704;BME280;21820;51.112;13.762;2022-10-30T09:26:24;99768.25;;;21.78;65.73
35704;BME280;21820;51.112;13.762;2022-10-30T09:28:49;99762.09;;;21.79;65.82
35704;BME280;21820;51.112;13.762;2022-10-30T09:31:14;99754.94;;;21.81;66.14
35704;BME280;21820;51.112;13.762;2022-10-30T09:33:40;99766.22;;;21.82;65.70
35704;BME280;21820;51.112;13.762;2022-10-30T09:36:05;99760.16;;;21.81;66.20
35704;BME280;21820;51.112;13.762;2022-10-30T09:38:30;99765.41;;;21.81;65.83
35704;BME280;21820;51.112;13.762;2022-10-30T09:48:57;99773.13;;;21.83;66.11
35704;BME280;21820;51.112;13.762;2022-10-30T09:56:44;99777.50;;;21.82;66.24
35704;BME280;21820;51.112;13.762;2022-10-30T10:01:58;99782.75;;;21.82;65.53
35704;BME280;21820;51.112;13.762;2022-10-30T10:04:37;99782.88;;;21.81;65.97
35704;BME280;21820;51.112;13.762;2022-10-30T10:07:10;99780.13;;;21.82;65.71
35704;BME280;21820;51.112;13.762;2022-10-30T10:09:37;99777.94;;;21.78;65.75
35704;BME280;21820;51.112;13.762;2022-10-30T10:12:04;99783.84;;;21.80;65.62
35704;BME280;21820;51.112;13.762;2022-10-30T10:14:32;99789.19;;;21.78;65.47
35704;BME280;21820;51.112;13.762;2022-10-30T10:16:59;99781.50;;;21.77;65.76
35704;BME280;21820;51.112;13.762;2022-10-30T10:19:31;99782.31;;;21.77;65.77
35704;BME280;21820;51.112;13.762;2022-10-30T10:21:58;99780.13;;;21.82;65.97
35704;BME280;21820;51.112;13.762;2022-10-30T10:24:25;99784.81;;;21.79;65.70
35704;BME280;21820;51.112;13.762;2022-10-30T10:29:32;99768.03;;;21.81;65.73
35704;BME280;21820;51.112;13.762;2022-10-30T10:32:12;99769.94;;;21.79;66.06
35704;BME280;21820;51.112;13.762;2022-10-30T10:39:46;99768.03;;;21.81;65.62
35704;BME280;21820;51.112;13.762;2022-10-30T10:42:23;99775.19;;;21.79;65.63
35704;BME280;21820;51.112;13.762;2022-10-30T10:52:39;99763.03;;;21.78;65.71
35704;BME280;21820;51.112;13.762;2022-10-30T10:55:14;99769.81;;;21.81;65.36
35704;BME280;21820;51.112;13.762;2022-10-30T10:57:41;99764.00;;;21.77;65.57
35704;BME280;21820;51.112;13.762;2022-10-30T11:00:20;99748.84;;;21.71;66.03
35704;BME280;21820;51.112;13.762;2022-10-30T11:05:47;99762.78;;;21.81;65.69
35704;BME280;21820;51.112;13.762;2022-10-30T11:08:28;99743.97;;;21.67;65.88
35704;BME280;21820;51.112;13.762;2022-10-30T11:11:03;99763.72;;;21.80;65.80
35704;BME280;21820;51.112;13.762;2022-10-30T11:13:33;99757.81;;;21.78;66.01
35704;BME280;21820;51.112;13.762;2022-10-30T11:16:17;99763.03;;;21.78;65.58
35704;BME280;21820;51.112;13.762;2022-10-30T11:18:45;99760.16;;;21.81;65.88
35704;BME280;21820;51.112;13.762;2022-10-30T11:21:14;99752.56;;;21.78;65.93
35704;BME280;21820;51.112;13.762;2022-10-30T11:23:42;99753.69;;;21.85;65.90
35704;BME280;21820;51.112;13.762;2022-10-30T11:31:46;99752.31;;;21.81;65.60
35704;BME280;21820;51.112;13.762;2022-10-30T11:34:24;99748.16;;;21.79;66.16
35704;BME280;21820;51.112;13.762;2022-10-30T11:36:53;99745.41;;;21.80;65.64
35704;BME280;21820;51.112;13.762;2022-10-30T11:39:19;99747.56;;;21.75;65.60
35704;BME280;21820;51.112;13.762;2022-10-30T11:41:47;99743.78;;;21.79;65.55
35704;BME280;21820;51.112;13.762;2022-10-30T11:44:13;99750.66;;;21.80;65.98
35704;BME280;21820;51.112;13.762;2022-10-30T11:46:38;99745.41;;;21.80;65.44
35704;BME280;21820;51.112;13.762;2022-10-30T11:49:04;99741.84;;;21.81;65.33
35704;BME280;21820;51.112;13.762;2022-10-30T11:51:30;99746.25;;;21.81;65.68
35704;BME280;21820;51.112;13.762;2022-10-30T11:53:56;99734.25;;;21.78;66.02
35704;BME280;21820;51.112;13.762;2022-10-30T11:56:22;99734.94;;;21.80;66.03
35704;BME280;21820;51.112;13.762;2022-10-30T11:58:54;99738.53;;;21.79;65.46
35704;BME280;21820;51.112;13.762;2022-10-30T12:01:22;99733.31;;;21.79;65.37
35704;BME280;21820;51.112;13.762;2022-10-30T12:03:48;99733.16;;;21.81;65.36
35704;BME280;21820;51.112;13.762;2022-10-30T12:11:29;99726.16;;;21.81;65.21
35704;BME280;21820;51.112;13.762;2022-10-30T12:13:55;99727.09;;;21.80;65.98
35704;BME280;21820;51.112;13.762;2022-10-30T12:16:21;99730.41;;;21.82;65.76
35704;BME280;21820;51.112;13.762;2022-10-30T12:19:05;99726.16;;;21.81;65.80
35704;BME280;21820;51.112;13.762;2022-10-30T12:21:40;99724.47;;;21.80;66.04
35704;BME280;21820;51.112;13.762;2022-10-30T12:24:13;99714.16;;;21.79;65.63
35704;BME280;21820;51.112;13.762;2022-10-30T12:26:40;99724.75;;;21.77;65.77
35704;BME280;21820;51.112;13.762;2022-10-30T12:29:12;99716.63;;;21.80;65.66
35704;BME280;21820;51.112;13.762;2022-10-30T12:31:41;99716.63;;;21.80;65.51
35704;BME280;21820;51.112;13.762;2022-10-30T12:34:22;99722.13;;;21.77;65.46
35704;BME280;21820;51.112;13.762;2022-10-30T12:36:52;99720.50;;;21.76;66.00
35704;BME280;21820;51.112;13.762;2022-10-30T12:39:22;99725.59;;;21.78;65.50
35704;BME280;21820;51.112;13.762;2022-10-30T12:41:53;99718.53;;;21.78;65.80
35704;BME280;21820;51.112;13.762;2022-10-30T12:44:29;99710.94;;;21.75;65.94
35704;BME280;21820;51.112;13.762;2022-10-30T12:46:59;99702.53;;;21.72;65.86
35704;BME280;21820;51.112;13.762;2022-10-30T12:52:05;99711.53;;;21.79;66.06
35704;BME280;21820;51.112;13.762;2022-10-30T12:57:41;99702.97;;;21.77;65.60
35704;BME280;21820;51.112;13.762;2022-10-30T13:00:15;99707.13;;;21.79;65.37
35704;BME280;21820;51.112;13.762;2022-10-30T13:02:55;99705.47;;;21.78;65.29
35704;BME280;21820;51.112;13.762;2022-10-30T13:08:01;99701.91;;;21.79;65.70
35704;BME280;21820;51.112;13.762;2022-10-30T13:10:48;99705.47;;;21.78;65.72
35704;BME280;21820;51.112;13.762;2022-10-30T13:13:17;99710.69;;;21.78;65.27
35704;BME280;21820;51.112;13.762;2022-10-30T13:15:45;99705.59;;;21.77;66.04
35704;BME280;21820;51.112;13.762;2022-10-30T13:18:22;99706.53;;;21.76;66.14
35704;BME280;21820;51.112;13.762;2022-10-30T13:21:00;99700.22;;;21.78;65.43
35704;BME280;21820;51.112;13.762;2022-10-30T13:23:30;99704.66;;;21.78;65.43
35704;BME280;21820;51.112;13.762;2022-10-30T13:34:03;99701.91;;;21.79;65.50
35704;BME280;21820;51.112;13.762;2022-10-30T13:36:41;99695.00;;;21.78;66.19
35704;BME280;21820;51.112;13.762;2022-10-30T13:44:14;99689.09;;;21.76;65.54
35704;BME280;21820;51.112;13.762;2022-10-30T13:47:06;99688.66;;;21.81;65.51
35704;BME280;21820;51.112;13.762;2022-10-30T13:50:16;99686.88;;;21.81;65.80
35704;BME280;21820;51.112;13.762;2022-10-30T13:52:14;99688.94;;;21.78;65.49
35704;BME280;21820;51.112;13.762;2022-10-30T13:54:54;99692.50;;;21.77;65.60
35704;BME280;21820;51.112;13.762;2022-10-30T14:04:51;99684.28;;;21.81;65.25
35704;BME280;21820;51.112;13.762;2022-10-30T14:10:10;99689.50;;;21.81;65.51
35704;BME280;21820;51.112;13.762;2022-10-30T14:15:39;99698.31;;;21.80;66.03
35704;BME280;21820;51.112;13.762;2022-10-30T14:25:38;99693.22;;;21.79;65.98
35704;BME280;21820;51.112;13.762;2022-10-30T14:28:03;99698.31;;;21.80;65.35
35704;BME280;21820;51.112;13.762;2022-10-30T14:30:29;99695.81;;;21.79;65.56
35704;BME280;21820;51.112;13.762;2022-10-30T14:32:57;99688.66;;;21.71;65.86
35704;BME280;21820;51.112;13.762;2022-10-30T14:35:30;99695.00;;;21.78;65.60
35704;BME280;21820;51.112;13.762;2022-10-30T14:38:06;99701.06;;;21.79;65.71
35704;BME280;21820;51.112;13.762;2022-10-30T14:40:40;99703.69;;;21.79;65.57
35704;BME280;21820;51.112;13.762;2022-10-30T14:46:18;99698.59;;;21.77;65.64
35704;BME280;21820;51.112;13.762;2022-10-30T14:48:51;99699.97;;;21.81;66.02
35704;BME280;21820;51.112;13.762;2022-10-30T15:14:32;99683.97;;;21.75;65.44
35704;BME280;21820;51.112;13.762;2022-10-30T15:16:58;99696.66;;;21.79;65.85